sensor_id;sensor_type;location;lat;lon;timestamp;P1;durP1;ratioP1;P2;durP2;ratioP2
23490;SDS011;14683;50.038;8.078;2023-03-20T03:47:10;37.20;;;20.40;;
23490;SDS011;14683;50.038;8.078;2023-03-20T03:49:44;57.97;;;29.88;;
23490;SDS011;14683;50.038;8.078;2023-03-20T03:52:15;61.75;;;30.98;;
23490;SDS011;14683;50.038;8.078;2023-03-20T03:54:47;62.63;;;33.15;;
23490;SDS011;14683;50.038;8.078;2023-03-20T03:57:28;63.13;;;32.70;;
23490;SDS011;14683;50.038;8.078;2023-03-20T03:59:57;62.20;;;32.10;;
23490;SDS011;14683;50.038;8.078;2023-03-20T04:02:24;58.53;;;32.15;;
23490;SDS011;14683;50.038;8.078;2023-03-20T04:07:17;55.80;;;30.00;;
23490;SDS011;14683;50.038;8.078;2023-03-20T04:12:27;55.22;;;28.08;;
23490;SDS011;14683;50.038;8.078;2023-03-20T04:14:58;55.47;;;28.08;;
23490;SDS011;14683;50.038;8.078;2023-03-20T04:17:26;57.25;;;29.17;;
23490;SDS011;14683;50.038;8.078;2023-03-20T04:19:52;55.85;;;28.10;;
23490;SDS011;14683;50.038;8.078;2023-03-20T04:22:18;59.90;;;29.17;;
23490;SDS011;14683;50.038;8.078;2023-03-20T04:24:44;52.40;;;27.73;;
23490;SDS011;14683;50.038;8.078;2023-03-20T04:27:10;53.65;;;27.75;;
23490;SDS011;14683;50.038;8.078;2023-03-20T04:29:38;57.35;;;28.48;;
23490;SDS011;14683;50.038;8.078;2023-03-20T04:32:25;59.47;;;29.20;;
23490;SDS011;14683;50.038;8.078;2023-03-20T04:35:16;52.97;;;26.88;;
23490;SDS011;14683;50.038;8.078;2023-03-20T04:37:50;53.47;;;26.92;;
23490;SDS011;14683;50.038;8.078;2023-03-20T04:40:17;55.10;;;27.40;;
23490;SDS011;14683;50.038;8.078;2023-03-20T04:42:44;50.88;;;25.38;;
23490;SDS011;14683;50.038;8.078;2023-03-20T04:45:10;55.05;;;27.63;;
23490;SDS011;14683;50.038;8.078;2023-03-20T04:47:38;46.50;;;25.15;;
23490;SDS011;14683;50.038;8.078;2023-03-20T04:50:05;50.03;;;25.23;;
23490;SDS011;14683;50.038;8.078;2023-03-20T04:52:31;55.50;;;25.45;;
23490;SDS011;14683;50.038;8.078;2023-03-20T04:54:57;56.03;;;26.80;;
23490;SDS011;14683;50.038;8.078;2023-03-20T04:57:23;53.50;;;24.02;;
23490;SDS011;14683;50.038;8.078;2023-03-20T04:59:50;55.60;;;26.83;;
23490;SDS011;14683;50.038;8.078;2023-03-20T05:02:17;54.30;;;25.98;;
23490;SDS011;14683;50.038;8.078;2023-03-20T05:04:43;47.42;;;23.92;;
23490;SDS011;14683;50.038;8.078;2023-03-20T05:07:10;50.70;;;24.85;;
23490;SDS011;14683;50.038;8.078;2023-03-20T05:09:54;50.03;;;23.92;;
23490;SDS011;14683;50.038;8.078;2023-03-20T05:12:22;49.53;;;25.20;;
23490;SDS011;14683;50.038;8.078;2023-03-20T05:15:11;52.78;;;26.77;;
23490;SDS011;14683;50.038;8.078;2023-03-20T05:17:57;54.83;;;27.30;;
23490;SDS011;14683;50.038;8.078;2023-03-20T05:20:30;59.75;;;28.42;;
23490;SDS011;14683;50.038;8.078;2023-03-20T05:23:21;52.90;;;26.33;;
23490;SDS011;14683;50.038;8.078;2023-03-20T05:25:51;54.50;;;26.48;;
23490;SDS011;14683;50.038;8.078;2023-03-20T05:28:37;56.22;;;27.45;;
23490;SDS011;14683;50.038;8.078;2023-03-20T05:31:26;51.97;;;25.70;;
23490;SDS011;14683;50.038;8.078;2023-03-20T05:34:13;54.83;;;25.08;;
23490;SDS011;14683;50.038;8.078;2023-03-20T05:37:02;52.55;;;27.17;;
23490;SDS011;14683;50.038;8.078;2023-03-20T05:39:53;49.90;;;25.98;;
23490;SDS011;14683;50.038;8.078;2023-03-20T05:42:40;54.30;;;25.97;;
23490;SDS011;14683;50.038;8.078;2023-03-20T05:45:28;52.28;;;26.00;;
23490;SDS011;14683;50.038;8.078;2023-03-20T05:47:55;57.05;;;26.63;;
23490;SDS011;14683;50.038;8.078;2023-03-20T05:50:43;54.53;;;27.35;;
23490;SDS011;14683;50.038;8.078;2023-03-20T05:53:09;51.97;;;28.08;;
23490;SDS011;14683;50.038;8.078;2023-03-20T05:55:56;52.85;;;26.90;;
23490;SDS011;14683;50.038;8.078;2023-03-20T05:58:48;50.97;;;25.30;;
23490;SDS011;14683;50.038;8.078;2023-03-20T06:01:17;53.25;;;27.02;;
23490;SDS011;14683;50.038;8.078;2023-03-20T06:04:04;48.72;;;25.95;;
23490;SDS011;14683;50.038;8.078;2023-03-20T06:06:50;45.28;;;24.90;;
23490;SDS011;14683;50.038;8.078;2023-03-20T06:09:16;48.03;;;25.85;;
23490;SDS011;14683;50.038;8.078;2023-03-20T06:11:42;47.67;;;26.08;;
23490;SDS011;14683;50.038;8.078;2023-03-20T06:14:09;48.97;;;26.65;;
23490;SDS011;14683;50.038;8.078;2023-03-20T06:16:38;48.92;;;25.95;;
23490;SDS011;14683;50.038;8.078;2023-03-20T06:21:31;50.15;;;26.88;;
23490;SDS011;14683;50.038;8.078;2023-03-20T06:23:58;55.70;;;28.75;;
23490;SDS011;14683;50.038;8.078;2023-03-20T06:26:24;57.85;;;29.08;;
23490;SDS011;14683;50.038;8.078;2023-03-20T06:29:00;59.97;;;30.37;;
23490;SDS011;14683;50.038;8.078;2023-03-20T06:31:27;61.47;;;31.13;;
23490;SDS011;14683;50.038;8.078;2023-03-20T06:33:53;57.67;;;29.23;;
23490;SDS011;14683;50.038;8.078;2023-03-20T06:36:19;61.45;;;30.50;;
23490;SDS011;14683;50.038;8.078;2023-03-20T06:38:50;57.63;;;30.85;;
23490;SDS011;14683;50.038;8.078;2023-03-20T06:41:16;62.72;;;31.10;;
23490;SDS011;14683;50.038;8.078;2023-03-20T06:43:42;64.07;;;32.47;;
23490;SDS011;14683;50.038;8.078;2023-03-20T06:46:10;68.30;;;34.03;;
23490;SDS011;14683;50.038;8.078;2023-03-20T06:51:04;63.95;;;33.63;;
23490;SDS011;14683;50.038;8.078;2023-03-20T06:53:36;63.92;;;32.38;;
23490;SDS011;14683;50.038;8.078;2023-03-20T06:56:07;68.68;;;33.28;;
23490;SDS011;14683;50.038;8.078;2023-03-20T06:58:33;64.80;;;31.98;;
23490;SDS011;14683;50.038;8.078;2023-03-20T07:00:59;66.45;;;33.42;;
23490;SDS011;14683;50.038;8.078;2023-03-20T07:03:25;66.57;;;34.75;;
23490;SDS011;14683;50.038;8.078;2023-03-20T07:05:52;69.82;;;35.50;;
23490;SDS011;14683;50.038;8.078;2023-03-20T07:08:21;71.03;;;35.53;;
23490;SDS011;14683;50.038;8.078;2023-03-20T07:10:48;72.80;;;37.63;;
23490;SDS011;14683;50.038;8.078;2023-03-20T07:13:14;72.35;;;38.33;;
23490;SDS011;14683;50.038;8.078;2023-03-20T07:15:42;73.15;;;36.30;;
23490;SDS011;14683;50.038;8.078;2023-03-20T07:18:10;77.82;;;38.33;;
23490;SDS011;14683;50.038;8.078;2023-03-20T07:20:36;72.05;;;35.40;;
23490;SDS011;14683;50.038;8.078;2023-03-20T07:23:02;72.22;;;33.53;;
23490;SDS011;14683;50.038;8.078;2023-03-20T07:25:32;64.57;;;33.38;;
23490;SDS011;14683;50.038;8.078;2023-03-20T07:28:08;70.28;;;35.25;;
23490;SDS011;14683;50.038;8.078;2023-03-20T07:30:37;74.68;;;35.08;;
23490;SDS011;14683;50.038;8.078;2023-03-20T07:33:04;71.43;;;34.58;;
23490;SDS011;14683;50.038;8.078;2023-03-20T07:35:32;71.22;;;35.13;;
23490;SDS011;14683;50.038;8.078;2023-03-20T07:37:59;70.47;;;35.75;;
23490;SDS011;14683;50.038;8.078;2023-03-20T07:40:25;75.50;;;36.50;;
23490;SDS011;14683;50.038;8.078;2023-03-20T07:43:01;75.50;;;36.17;;
23490;SDS011;14683;50.038;8.078;2023-03-20T07:45:50;76.28;;;35.28;;
23490;SDS011;14683;50.038;8.078;2023-03-20T07:48:18;70.93;;;33.30;;
23490;SDS011;14683;50.038;8.078;2023-03-20T07:50:44;73.70;;;34.15;;
23490;SDS011;14683;50.038;8.078;2023-03-20T07:53:10;72.63;;;33.95;;
23490;SDS011;14683;50.038;8.078;2023-03-20T07:55:36;72.82;;;34.50;;
23490;SDS011;14683;50.038;8.078;2023-03-20T07:58:02;75.40;;;35.88;;
23490;SDS011;14683;50.038;8.078;2023-03-20T08:02:55;67.45;;;33.55;;
23490;SDS011;14683;50.038;8.078;2023-03-20T08:05:22;74.97;;;35.90;;
23490;SDS011;14683;50.038;8.078;2023-03-20T08:07:48;68.30;;;34.10;;
23490;SDS011;14683;50.038;8.078;2023-03-20T08:10:14;68.22;;;33.30;;
23490;SDS011;14683;50.038;8.078;2023-03-20T08:12:41;68.85;;;34.03;;
23490;SDS011;14683;50.038;8.078;2023-03-20T08:15:07;66.82;;;32.92;;
23490;SDS011;14683;50.038;8.078;2023-03-20T08:17:34;64.07;;;32.15;;
23490;SDS011;14683;50.038;8.078;2023-03-20T08:22:26;60.83;;;29.95;;
23490;SDS011;14683;50.038;8.078;2023-03-20T08:24:52;65.03;;;30.25;;
23490;SDS011;14683;50.038;8.078;2023-03-20T08:27:18;56.97;;;30.05;;
23490;SDS011;14683;50.038;8.078;2023-03-20T08:32:10;51.05;;;27.10;;
23490;SDS011;14683;50.038;8.078;2023-03-20T08:34:36;60.58;;;30.85;;
23490;SDS011;14683;50.038;8.078;2023-03-20T08:37:02;59.70;;;31.67;;
23490;SDS011;14683;50.038;8.078;2023-03-20T08:39:29;49.38;;;27.42;;
23490;SDS011;14683;50.038;8.078;2023-03-20T08:44:21;48.80;;;27.13;;
23490;SDS011;14683;50.038;8.078;2023-03-20T08:46:47;52.03;;;28.17;;
23490;SDS011;14683;50.038;8.078;2023-03-20T08:49:13;55.47;;;29.38;;
23490;SDS011;14683;50.038;8.078;2023-03-20T08:51:39;51.40;;;27.67;;
23490;SDS011;14683;50.038;8.078;2023-03-20T08:54:05;51.38;;;28.58;;
23490;SDS011;14683;50.038;8.078;2023-03-20T08:56:32;49.40;;;27.45;;
23490;SDS011;14683;50.038;8.078;2023-03-20T08:58:58;48.13;;;27.13;;
23490;SDS011;14683;50.038;8.078;2023-03-20T09:01:24;41.20;;;24.10;;
23490;SDS011;14683;50.038;8.078;2023-03-20T09:03:50;41.47;;;22.65;;
23490;SDS011;14683;50.038;8.078;2023-03-20T09:06:17;38.20;;;22.55;;
23490;SDS011;14683;50.038;8.078;2023-03-20T09:11:09;40.42;;;20.67;;
23490;SDS011;14683;50.038;8.078;2023-03-20T09:13:35;37.63;;;20.85;;
23490;SDS011;14683;50.038;8.078;2023-03-20T09:16:01;36.95;;;22.48;;
23490;SDS011;14683;50.038;8.078;2023-03-20T09:18:28;37.85;;;22.63;;
23490;SDS011;14683;50.038;8.078;2023-03-20T09:20:54;36.88;;;21.88;;
23490;SDS011;14683;50.038;8.078;2023-03-20T09:23:21;31.17;;;20.15;;
23490;SDS011;14683;50.038;8.078;2023-03-20T09:25:47;25.90;;;16.77;;
23490;SDS011;14683;50.038;8.078;2023-03-20T09:30:39;28.88;;;17.02;;
23490;SDS011;14683;50.038;8.078;2023-03-20T09:33:08;30.73;;;17.65;;
23490;SDS011;14683;50.038;8.078;2023-03-20T09:35:34;22.10;;;14.40;;
23490;SDS011;14683;50.038;8.078;2023-03-20T09:38:00;24.55;;;15.27;;
23490;SDS011;14683;50.038;8.078;2023-03-20T09:40:28;17.63;;;12.10;;
23490;SDS011;14683;50.038;8.078;2023-03-20T09:43:09;21.27;;;12.38;;
23490;SDS011;14683;50.038;8.078;2023-03-20T09:54:43;13.48;;;9.90;;
23490;SDS011;14683;50.038;8.078;2023-03-20T09:57:01;16.42;;;11.20;;
23490;SDS011;14683;50.038;8.078;2023-03-20T09:59:28;18.25;;;12.05;;
23490;SDS011;14683;50.038;8.078;2023-03-20T10:01:58;15.38;;;10.35;;
23490;SDS011;14683;50.038;8.078;2023-03-20T10:04:30;15.02;;;10.32;;
23490;SDS011;14683;50.038;8.078;2023-03-20T10:06:56;15.93;;;10.00;;
23490;SDS011;14683;50.038;8.078;2023-03-20T10:09:23;12.40;;;9.65;;
23490;SDS011;14683;50.038;8.078;2023-03-20T10:20:34;13.07;;;8.98;;
23490;SDS011;14683;50.038;8.078;2023-03-20T10:23:06;12.07;;;8.35;;
23490;SDS011;14683;50.038;8.078;2023-03-20T10:25:41;13.05;;;8.93;;
23490;SDS011;14683;50.038;8.078;2023-03-20T10:28:11;12.05;;;8.95;;
23490;SDS011;14683;50.038;8.078;2023-03-20T10:30:54;11.50;;;8.23;;
23490;SDS011;14683;50.038;8.078;2023-03-20T10:33:31;11.57;;;7.63;;
23490;SDS011;14683;50.038;8.078;2023-03-20T10:36:14;11.07;;;8.02;;
23490;SDS011;14683;50.038;8.078;2023-03-20T10:38:59;10.75;;;7.95;;
23490;SDS011;14683;50.038;8.078;2023-03-20T10:41:38;11.80;;;8.20;;
23490;SDS011;14683;50.038;8.078;2023-03-20T10:44:07;12.23;;;7.97;;
23490;SDS011;14683;50.038;8.078;2023-03-20T10:46:39;7.78;;;5.57;;
23490;SDS011;14683;50.038;8.078;2023-03-20T10:49:11;7.47;;;5.10;;
23490;SDS011;14683;50.038;8.078;2023-03-20T10:51:46;7.78;;;5.22;;
23490;SDS011;14683;50.038;8.078;2023-03-20T10:54:20;6.40;;;4.53;;
23490;SDS011;14683;50.038;8.078;2023-03-20T10:56:48;7.28;;;4.30;;
23490;SDS011;14683;50.038;8.078;2023-03-20T10:59:26;4.63;;;4.00;;
23490;SDS011;14683;50.038;8.078;2023-03-20T11:01:54;6.55;;;3.80;;
23490;SDS011;14683;50.038;8.078;2023-03-20T11:04:20;4.55;;;3.75;;
23490;SDS011;14683;50.038;8.078;2023-03-20T11:09:28;5.90;;;3.40;;
23490;SDS011;14683;50.038;8.078;2023-03-20T11:11:56;4.90;;;3.63;;
23490;SDS011;14683;50.038;8.078;2023-03-20T11:14:24;4.28;;;2.80;;
23490;SDS011;14683;50.038;8.078;2023-03-20T11:16:54;4.55;;;2.97;;
23490;SDS011;14683;50.038;8.078;2023-03-20T11:19:22;5.63;;;2.78;;
23490;SDS011;14683;50.038;8.078;2023-03-20T11:21:49;3.40;;;2.35;;
23490;SDS011;14683;50.038;8.078;2023-03-20T11:24:26;2.72;;;2.38;;
23490;SDS011;14683;50.038;8.078;2023-03-20T11:27:08;3.38;;;2.20;;
23490;SDS011;14683;50.038;8.078;2023-03-20T11:29:35;5.03;;;2.58;;
23490;SDS011;14683;50.038;8.078;2023-03-20T11:38:11;1.90;;;1.77;;
23490;SDS011;14683;50.038;8.078;2023-03-20T11:40:39;3.88;;;2.17;;
23490;SDS011;14683;50.038;8.078;2023-03-20T11:43:09;3.28;;;2.13;;
23490;SDS011;14683;50.038;8.078;2023-03-20T11:45:38;2.65;;;2.15;;
23490;SDS011;14683;50.038;8.078;2023-03-20T11:48:05;3.10;;;2.17;;
23490;SDS011;14683;50.038;8.078;2023-03-20T11:51:00;3.72;;;2.40;;
23490;SDS011;14683;50.038;8.078;2023-03-20T11:53:37;3.13;;;2.30;;
23490;SDS011;14683;50.038;8.078;2023-03-20T12:01:18;4.80;;;2.15;;
23490;SDS011;14683;50.038;8.078;2023-03-20T12:03:49;7.10;;;2.15;;
23490;SDS011;14683;50.038;8.078;2023-03-20T12:06:25;2.80;;;2.13;;
23490;SDS011;14683;50.038;8.078;2023-03-20T12:08:55;2.65;;;2.10;;
23490;SDS011;14683;50.038;8.078;2023-03-20T12:11:36;4.72;;;2.10;;
23490;SDS011;14683;50.038;8.078;2023-03-20T12:14:07;4.10;;;1.88;;
23490;SDS011;14683;50.038;8.078;2023-03-20T12:16:48;2.92;;;2.00;;
23490;SDS011;14683;50.038;8.078;2023-03-20T12:19:19;2.72;;;1.95;;
23490;SDS011;14683;50.038;8.078;2023-03-20T12:22:22;3.08;;;1.98;;
23490;SDS011;14683;50.038;8.078;2023-03-20T12:24:54;3.40;;;2.22;;
23490;SDS011;14683;50.038;8.078;2023-03-20T12:27:28;4.25;;;2.30;;
23490;SDS011;14683;50.038;8.078;2023-03-20T12:32:49;2.55;;;2.00;;
23490;SDS011;14683;50.038;8.078;2023-03-20T12:35:28;2.03;;;1.90;;
23490;SDS011;14683;50.038;8.078;2023-03-20T12:37:55;2.90;;;2.10;;
23490;SDS011;14683;50.038;8.078;2023-03-20T12:40:25;3.72;;;2.10;;
23490;SDS011;14683;50.038;8.078;2023-03-20T12:43:03;2.60;;;2.13;;
23490;SDS011;14683;50.038;8.078;2023-03-20T12:45:38;2.67;;;2.33;;
23490;SDS011;14683;50.038;8.078;2023-03-20T12:50:52;3.35;;;2.65;;
23490;SDS011;14683;50.038;8.078;2023-03-20T12:56:07;5.07;;;2.60;;
23490;SDS011;14683;50.038;8.078;2023-03-20T12:58:40;4.90;;;2.60;;
23490;SDS011;14683;50.038;8.078;2023-03-20T13:01:11;3.30;;;2.60;;
23490;SDS011;14683;50.038;8.078;2023-03-20T13:04:04;3.90;;;3.10;;
23490;SDS011;14683;50.038;8.078;2023-03-20T13:09:31;5.45;;;3.03;;
23490;SDS011;14683;50.038;8.078;2023-03-20T13:20:20;4.97;;;3.67;;
23490;SDS011;14683;50.038;8.078;2023-03-20T13:25:42;3.83;;;3.42;;
23490;SDS011;14683;50.038;8.078;2023-03-20T13:28:20;5.22;;;4.13;;
23490;SDS011;14683;50.038;8.078;2023-03-20T13:31:35;6.45;;;4.57;;
23490;SDS011;14683;50.038;8.078;2023-03-20T13:36:53;5.60;;;4.25;;
23490;SDS011;14683;50.038;8.078;2023-03-20T13:39:34;8.10;;;4.05;;
23490;SDS011;14683;50.038;8.078;2023-03-20T13:42:05;6.13;;;4.05;;
23490;SDS011;14683;50.038;8.078;2023-03-20T13:44:37;5.82;;;4.35;;
23490;SDS011;14683;50.038;8.078;2023-03-20T13:49:54;8.27;;;3.38;;
23490;SDS011;14683;50.038;8.078;2023-03-20T13:52:24;6.22;;;3.60;;
23490;SDS011;14683;50.038;8.078;2023-03-20T14:00:21;4.18;;;2.80;;
23490;SDS011;14683;50.038;8.078;2023-03-20T14:05:53;3.17;;;2.83;;
23490;SDS011;14683;50.038;8.078;2023-03-20T14:11:03;4.72;;;2.28;;
23490;SDS011;14683;50.038;8.078;2023-03-20T14:13:30;5.13;;;2.63;;
23490;SDS011;14683;50.038;8.078;2023-03-20T14:15:59;3.38;;;2.38;;
23490;SDS011;14683;50.038;8.078;2023-03-20T14:18:26;2.63;;;2.13;;
23490;SDS011;14683;50.038;8.078;2023-03-20T14:20:59;4.22;;;2.30;;
23490;SDS011;14683;50.038;8.078;2023-03-20T14:23:34;2.20;;;2.00;;
23490;SDS011;14683;50.038;8.078;2023-03-20T14:26:07;2.58;;;1.80;;
23490;SDS011;14683;50.038;8.078;2023-03-20T14:28:47;1.75;;;1.50;;
23490;SDS011;14683;50.038;8.078;2023-03-20T14:31:27;1.45;;;1.33;;
23490;SDS011;14683;50.038;8.078;2023-03-20T14:34:17;1.70;;;1.50;;
23490;SDS011;14683;50.038;8.078;2023-03-20T14:36:58;3.35;;;1.48;;
23490;SDS011;14683;50.038;8.078;2023-03-20T14:39:42;4.00;;;1.90;;
23490;SDS011;14683;50.038;8.078;2023-03-20T14:50:17;2.38;;;2.00;;
23490;SDS011;14683;50.038;8.078;2023-03-20T14:52:48;2.10;;;1.90;;
23490;SDS011;14683;50.038;8.078;2023-03-20T14:58:55;3.20;;;1.90;;
23490;SDS011;14683;50.038;8.078;2023-03-20T15:01:15;3.17;;;2.25;;
23490;SDS011;14683;50.038;8.078;2023-03-20T15:03:47;3.38;;;2.05;;
23490;SDS011;14683;50.038;8.078;2023-03-20T15:06:16;3.53;;;1.80;;
23490;SDS011;14683;50.038;8.078;2023-03-20T15:08:47;2.55;;;1.95;;
23490;SDS011;14683;50.038;8.078;2023-03-20T15:11:16;7.10;;;2.47;;
23490;SDS011;14683;50.038;8.078;2023-03-20T15:13:42;4.20;;;2.20;;
23490;SDS011;14683;50.038;8.078;2023-03-20T15:16:10;3.72;;;2.17;;
23490;SDS011;14683;50.038;8.078;2023-03-20T15:18:43;3.05;;;2.60;;
23490;SDS011;14683;50.038;8.078;2023-03-20T15:21:12;3.03;;;2.25;;
23490;SDS011;14683;50.038;8.078;2023-03-20T15:23:44;2.45;;;2.10;;
23490;SDS011;14683;50.038;8.078;2023-03-20T15:26:14;4.35;;;2.42;;
23490;SDS011;14683;50.038;8.078;2023-03-20T15:28:41;7.15;;;2.53;;
23490;SDS011;14683;50.038;8.078;2023-03-20T15:31:24;4.80;;;2.20;;
23490;SDS011;14683;50.038;8.078;2023-03-20T15:33:52;4.60;;;2.63;;
23490;SDS011;14683;50.038;8.078;2023-03-20T15:36:18;7.28;;;2.63;;
23490;SDS011;14683;50.038;8.078;2023-03-20T15:38:46;5.40;;;2.80;;
23490;SDS011;14683;50.038;8.078;2023-03-20T15:41:23;4.82;;;2.72;;
23490;SDS011;14683;50.038;8.078;2023-03-20T15:43:49;4.90;;;3.08;;
23490;SDS011;14683;50.038;8.078;2023-03-20T15:46:15;5.20;;;2.88;;
23490;SDS011;14683;50.038;8.078;2023-03-20T15:48:45;5.50;;;3.30;;
23490;SDS011;14683;50.038;8.078;2023-03-20T15:51:13;5.10;;;3.10;;
23490;SDS011;14683;50.038;8.078;2023-03-20T15:53:39;3.83;;;2.70;;
23490;SDS011;14683;50.038;8.078;2023-03-20T15:56:13;4.82;;;2.70;;
23490;SDS011;14683;50.038;8.078;2023-03-20T15:58:40;6.82;;;2.72;;
23490;SDS011;14683;50.038;8.078;2023-03-20T16:01:08;4.15;;;2.78;;
23490;SDS011;14683;50.038;8.078;2023-03-20T16:06:02;3.92;;;2.90;;
23490;SDS011;14683;50.038;8.078;2023-03-20T16:08:31;6.43;;;3.13;;
23490;SDS011;14683;50.038;8.078;2023-03-20T16:10:59;5.78;;;3.20;;
23490;SDS011;14683;50.038;8.078;2023-03-20T16:13:28;4.90;;;2.67;;
23490;SDS011;14683;50.038;8.078;2023-03-20T16:15:59;5.93;;;2.90;;
23490;SDS011;14683;50.038;8.078;2023-03-20T16:18:25;4.07;;;3.03;;
23490;SDS011;14683;50.038;8.078;2023-03-20T16:20:56;8.85;;;3.45;;
23490;SDS011;14683;50.038;8.078;2023-03-20T16:23:36;4.63;;;2.78;;
23490;SDS011;14683;50.038;8.078;2023-03-20T16:26:05;4.60;;;2.67;;
23490;SDS011;14683;50.038;8.078;2023-03-20T16:28:34;4.05;;;2.78;;
23490;SDS011;14683;50.038;8.078;2023-03-20T16:31:06;4.50;;;2.42;;
23490;SDS011;14683;50.038;8.078;2023-03-20T16:33:33;4.78;;;2.35;;
23490;SDS011;14683;50.038;8.078;2023-03-20T16:36:00;3.22;;;2.25;;
23490;SDS011;14683;50.038;8.078;2023-03-20T16:38:31;4.18;;;2.40;;
23490;SDS011;14683;50.038;8.078;2023-03-20T16:43:53;7.28;;;2.47;;
23490;SDS011;14683;50.038;8.078;2023-03-20T16:46:20;6.65;;;2.33;;
23490;SDS011;14683;50.038;8.078;2023-03-20T16:48:48;7.45;;;2.50;;
23490;SDS011;14683;50.038;8.078;2023-03-20T16:53:49;6.97;;;2.80;;
23490;SDS011;14683;50.038;8.078;2023-03-20T16:56:41;3.97;;;2.40;;
23490;SDS011;14683;50.038;8.078;2023-03-20T16:59:09;4.70;;;3.05;;
23490;SDS011;14683;50.038;8.078;2023-03-20T17:01:40;7.90;;;2.72;;
23490;SDS011;14683;50.038;8.078;2023-03-20T17:06:59;4.45;;;2.60;;
23490;SDS011;14683;50.038;8.078;2023-03-20T17:09:27;5.70;;;2.70;;
23490;SDS011;14683;50.038;8.078;2023-03-20T17:12:00;6.63;;;2.70;;
23490;SDS011;14683;50.038;8.078;2023-03-20T17:14:30;4.10;;;2.65;;
23490;SDS011;14683;50.038;8.078;2023-03-20T17:16:56;4.32;;;2.38;;
23490;SDS011;14683;50.038;8.078;2023-03-20T17:19:23;6.00;;;3.08;;
23490;SDS011;14683;50.038;8.078;2023-03-20T17:21:49;3.92;;;2.17;;
23490;SDS011;14683;50.038;8.078;2023-03-20T17:26:42;4.03;;;2.40;;
23490;SDS011;14683;50.038;8.078;2023-03-20T17:29:10;4.43;;;2.17;;
23490;SDS011;14683;50.038;8.078;2023-03-20T17:31:37;5.80;;;2.63;;
23490;SDS011;14683;50.038;8.078;2023-03-20T17:34:03;3.42;;;2.38;;
23490;SDS011;14683;50.038;8.078;2023-03-20T17:36:29;4.00;;;2.28;;
23490;SDS011;14683;50.038;8.078;2023-03-20T17:38:56;7.97;;;3.35;;
23490;SDS011;14683;50.038;8.078;2023-03-20T17:41:24;4.78;;;3.17;;
23490;SDS011;14683;50.038;8.078;2023-03-20T17:43:50;5.47;;;3.35;;
23490;SDS011;14683;50.038;8.078;2023-03-20T17:48:42;6.32;;;3.30;;
23490;SDS011;14683;50.038;8.078;2023-03-20T17:51:08;5.90;;;2.97;;
23490;SDS011;14683;50.038;8.078;2023-03-20T17:53:34;5.93;;;2.55;;
23490;SDS011;14683;50.038;8.078;2023-03-20T17:56:00;7.88;;;2.47;;
23490;SDS011;14683;50.038;8.078;2023-03-20T17:58:26;6.25;;;2.80;;
23490;SDS011;14683;50.038;8.078;2023-03-20T18:00:53;5.43;;;2.83;;
23490;SDS011;14683;50.038;8.078;2023-03-20T18:03:19;6.72;;;2.35;;
23490;SDS011;14683;50.038;8.078;2023-03-20T18:05:49;5.03;;;3.03;;
23490;SDS011;14683;50.038;8.078;2023-03-20T18:08:19;5.82;;;2.83;;
23490;SDS011;14683;50.038;8.078;2023-03-20T18:10:47;7.70;;;3.28;;
23490;SDS011;14683;50.038;8.078;2023-03-20T18:13:14;4.55;;;2.88;;
23490;SDS011;14683;50.038;8.078;2023-03-20T18:15:43;4.70;;;2.95;;
23490;SDS011;14683;50.038;8.078;2023-03-20T18:18:09;3.47;;;2.70;;
23490;SDS011;14683;50.038;8.078;2023-03-20T18:20:36;6.43;;;2.50;;
23490;SDS011;14683;50.038;8.078;2023-03-20T18:23:04;5.78;;;2.63;;
23490;SDS011;14683;50.038;8.078;2023-03-20T18:25:30;4.80;;;3.15;;
23490;SDS011;14683;50.038;8.078;2023-03-20T18:27:57;6.68;;;2.90;;
23490;SDS011;14683;50.038;8.078;2023-03-20T18:30:29;6.60;;;3.88;;
23490;SDS011;14683;50.038;8.078;2023-03-20T18:32:59;7.10;;;3.35;;
23490;SDS011;14683;50.038;8.078;2023-03-20T18:35:26;6.78;;;3.35;;
23490;SDS011;14683;50.038;8.078;2023-03-20T18:40:19;5.47;;;3.05;;
23490;SDS011;14683;50.038;8.078;2023-03-20T18:42:47;6.97;;;2.83;;
23490;SDS011;14683;50.038;8.078;2023-03-20T18:45:13;5.13;;;3.13;;
23490;SDS011;14683;50.038;8.078;2023-03-20T18:50:11;5.47;;;2.70;;
23490;SDS011;14683;50.038;8.078;2023-03-20T18:52:49;7.43;;;3.22;;
23490;SDS011;14683;50.038;8.078;2023-03-20T18:55:19;5.50;;;2.63;;
23490;SDS011;14683;50.038;8.078;2023-03-20T18:57:45;7.38;;;4.20;;
23490;SDS011;14683;50.038;8.078;2023-03-20T19:00:19;13.07;;;5.13;;
23490;SDS011;14683;50.038;8.078;2023-03-20T19:02:51;5.88;;;4.13;;
23490;SDS011;14683;50.038;8.078;2023-03-20T19:05:20;4.18;;;2.95;;
23490;SDS011;14683;50.038;8.078;2023-03-20T19:07:46;6.82;;;2.88;;
23490;SDS011;14683;50.038;8.078;2023-03-20T19:10:56;6.20;;;2.58;;
23490;SDS011;14683;50.038;8.078;2023-03-20T19:13:04;6.90;;;2.78;;
23490;SDS011;14683;50.038;8.078;2023-03-20T19:15:31;6.05;;;2.70;;
23490;SDS011;14683;50.038;8.078;2023-03-20T19:18:02;5.97;;;3.05;;
23490;SDS011;14683;50.038;8.078;2023-03-20T19:20:34;6.78;;;2.30;;
23490;SDS011;14683;50.038;8.078;2023-03-20T19:23:05;6.68;;;2.58;;
23490;SDS011;14683;50.038;8.078;2023-03-20T19:25:32;6.10;;;3.28;;
23490;SDS011;14683;50.038;8.078;2023-03-20T19:27:59;3.38;;;2.92;;
23490;SDS011;14683;50.038;8.078;2023-03-20T19:30:30;6.25;;;3.00;;
23490;SDS011;14683;50.038;8.078;2023-03-20T19:32:57;6.93;;;3.40;;
23490;SDS011;14683;50.038;8.078;2023-03-20T19:35:24;8.32;;;3.80;;
23490;SDS011;14683;50.038;8.078;2023-03-20T19:37:50;10.35;;;3.40;;
23490;SDS011;14683;50.038;8.078;2023-03-20T19:42:51;4.13;;;2.70;;
23490;SDS011;14683;50.038;8.078;2023-03-20T19:47:43;4.95;;;2.97;;
23490;SDS011;14683;50.038;8.078;2023-03-20T19:50:31;4.90;;;2.70;;
23490;SDS011;14683;50.038;8.078;2023-03-20T19:52:58;9.27;;;3.70;;
23490;SDS011;14683;50.038;8.078;2023-03-20T19:55:26;7.47;;;2.78;;
23490;SDS011;14683;50.038;8.078;2023-03-20T19:57:53;4.75;;;2.95;;
23490;SDS011;14683;50.038;8.078;2023-03-20T20:00:21;4.25;;;3.00;;
23490;SDS011;14683;50.038;8.078;2023-03-20T20:02:47;4.40;;;2.22;;
23490;SDS011;14683;50.038;8.078;2023-03-20T20:07:45;7.47;;;2.58;;
23490;SDS011;14683;50.038;8.078;2023-03-20T20:10:11;3.47;;;1.98;;
23490;SDS011;14683;50.038;8.078;2023-03-20T20:12:37;5.55;;;2.42;;
23490;SDS011;14683;50.038;8.078;2023-03-20T20:15:07;7.15;;;2.28;;
23490;SDS011;14683;50.038;8.078;2023-03-20T20:17:34;7.32;;;2.95;;
23490;SDS011;14683;50.038;8.078;2023-03-20T20:22:26;8.32;;;3.50;;
23490;SDS011;14683;50.038;8.078;2023-03-20T20:24:52;10.90;;;2.88;;
23490;SDS011;14683;50.038;8.078;2023-03-20T20:27:18;3.53;;;2.17;;
23490;SDS011;14683;50.038;8.078;2023-03-20T20:32:11;3.78;;;2.50;;
23490;SDS011;14683;50.038;8.078;2023-03-20T20:34:37;5.97;;;3.17;;
23490;SDS011;14683;50.038;8.078;2023-03-20T20:37:03;6.88;;;3.53;;
23490;SDS011;14683;50.038;8.078;2023-03-20T20:39:29;6.47;;;3.38;;
23490;SDS011;14683;50.038;8.078;2023-03-20T20:41:55;6.43;;;2.25;;
23490;SDS011;14683;50.038;8.078;2023-03-20T20:44:21;5.53;;;2.30;;
23490;SDS011;14683;50.038;8.078;2023-03-20T20:49:13;8.40;;;2.20;;
23490;SDS011;14683;50.038;8.078;2023-03-20T20:51:39;5.97;;;2.00;;
23490;SDS011;14683;50.038;8.078;2023-03-20T20:54:05;6.88;;;2.47;;
23490;SDS011;14683;50.038;8.078;2023-03-20T20:56:33;6.90;;;2.08;;
23490;SDS011;14683;50.038;8.078;2023-03-20T21:01:25;5.15;;;2.22;;
23490;SDS011;14683;50.038;8.078;2023-03-20T21:03:51;5.55;;;2.92;;
23490;SDS011;14683;50.038;8.078;2023-03-20T21:06:17;8.65;;;3.28;;